Time;durP1;ratioP1;P1;durP2;ratioP2;P2;SDS_P1;SDS_P2;PMS_P1;PMS_P2;Temp;Humidity;BMP_temperature;BMP_pressure;BME280_temperature;BME280_humidity;BME280_pressure;Samples;Min_cycle;Max_cycle;Signal;HPM_P1;HPM_P2
2022/05/08 00:01:12;;;;;;;8.82;4.10;;;;;;;13.10;77.91;102426.78;5029844;28;20183;-71
2022/05/08 00:03:38;;;;;;;7.75;4.70;;;;;;;13.05;77.96;102424.66;5033192;28;20029;-70
2022/05/08 00:06:10;;;;;;;9.35;4.57;;;;;;;13.02;78.81;102425.06;5032043;28;20021;-72
2022/05/08 00:08:35;;;;;;;9.70;4.30;;;;;;;12.98;78.41;102422.97;5033433;28;20479;-70
2022/05/08 00:11:00;;;;;;;10.35;4.45;;;;;;;12.98;79.35;102423.78;5031579;28;20030;-71
2022/05/08 00:13:25;;;;;;;7.28;4.85;;;;;;;12.99;79.26;102420.06;5031924;28;20037;-72
2022/05/08 00:15:51;;;;;;;9.80;5.03;;;;;;;12.99;78.79;102416.50;5031951;28;20029;-70
2022/05/08 00:18:16;;;;;;;8.30;4.80;;;;;;;13.03;79.12;102415.91;5032819;28;20033;-72
2022/05/08 00:20:41;;;;;;;8.85;4.80;;;;;;;13.03;79.53;102417.75;5015522;28;20041;-71
2022/05/08 00:23:07;;;;;;;9.40;4.88;;;;;;;13.06;78.91;102414.66;5031586;28;20423;-73
2022/05/08 00:25:32;;;;;;;8.57;4.88;;;;;;;13.02;79.16;102421.53;5031727;28;20436;-73
2022/05/08 00:27:57;;;;;;;8.15;4.75;;;;;;;12.93;79.48;102421.69;5031071;28;20029;-73
2022/05/08 00:30:23;;;;;;;13.70;5.47;;;;;;;12.93;79.63;102416.25;5031437;28;20033;-73
2022/05/08 00:32:49;;;;;;;13.25;5.13;;;;;;;12.87;79.75;102422.50;5032900;28;20029;-71
2022/05/08 00:35:14;;;;;;;9.13;5.18;;;;;;;12.82;80.37;102419.56;5031019;28;20040;-73
2022/05/08 00:37:39;;;;;;;9.45;5.20;;;;;;;12.84;80.49;102417.47;5032592;28;20025;-72
2022/05/08 00:40:06;;;;;;;13.55;5.25;;;;;;;12.81;80.19;102415.16;5047612;28;20100;-71
2022/05/08 00:42:31;;;;;;;13.98;5.53;;;;;;;12.80;80.40;102416.19;5032746;28;20033;-71
2022/05/08 00:44:56;;;;;;;13.40;5.72;;;;;;;12.76;80.79;102412.22;5031846;28;20102;-73
2022/05/08 00:47:22;;;;;;;9.73;5.20;;;;;;;12.80;80.63;102418.06;5031257;28;20037;-72
2022/05/08 00:49:48;;;;;;;13.82;5.97;;;;;;;12.71;81.03;102425.53;5031210;28;20060;-72
2022/05/08 00:52:15;;;;;;;12.63;5.60;;;;;;;12.65;81.13;102419.06;5031122;28;20580;-72
2022/05/08 00:54:41;;;;;;;11.98;5.88;;;;;;;12.58;81.35;102416.28;5031127;28;20413;-72
2022/05/08 00:57:07;;;;;;;11.65;6.13;;;;;;;12.58;81.32;102429.88;5030894;28;20457;-72
2022/05/08 00:59:33;;;;;;;13.73;6.05;;;;;;;12.54;81.95;102427.75;5032415;28;20047;-70
2022/05/08 01:01:59;;;;;;;10.48;6.00;;;;;;;12.47;82.30;102435.00;5028396;28;20029;-72
2022/05/08 01:04:24;;;;;;;12.88;5.80;;;;;;;12.51;82.15;102434.41;5032099;28;20067;-71
2022/05/08 01:06:49;;;;;;;9.98;5.75;;;;;;;12.57;81.50;102428.19;5030802;28;20084;-72
2022/05/08 01:09:15;;;;;;;13.07;6.22;;;;;;;12.57;82.32;102433.63;5031819;28;20049;-71
2022/05/08 01:11:40;;;;;;;15.10;6.68;;;;;;;12.51;81.67;102439.84;5032277;28;20040;-72
2022/05/08 01:14:05;;;;;;;11.73;6.13;;;;;;;12.52;81.55;102430.66;5032162;28;20041;-71
2022/05/08 01:16:31;;;;;;;15.70;6.90;;;;;;;12.49;81.75;102431.06;5031849;28;20033;-72
2022/05/08 01:18:56;;;;;;;11.20;6.65;;;;;;;12.54;81.56;102434.00;5033783;28;20041;-71
2022/05/08 01:21:43;;;;;;;12.63;6.50;;;;;;;12.54;81.07;102438.63;5035016;28;20029;-72
2022/05/08 01:24:09;;;;;;;10.60;6.70;;;;;;;12.48;81.38;102437.53;5036016;28;20034;-71
2022/05/08 01:26:35;;;;;;;15.68;7.30;;;;;;;12.43;80.92;102431.88;5035050;28;20033;-71
2022/05/08 01:29:01;;;;;;;15.07;6.82;;;;;;;12.36;81.33;102426.38;5051488;28;20427;-72
2022/05/08 01:31:26;;;;;;;12.18;7.03;;;;;;;12.35;81.26;102437.44;5034367;28;20021;-70
2022/05/08 01:33:52;;;;;;;11.70;6.80;;;;;;;12.36;81.89;102441.84;5034882;28;20044;-73
2022/05/08 01:36:17;;;;;;;10.80;6.90;;;;;;;12.33;81.04;102436.81;5034337;28;20065;-72
2022/05/08 01:38:43;;;;;;;13.00;7.47;;;;;;;12.26;81.33;102444.91;5034838;28;20104;-71
2022/05/08 01:41:08;;;;;;;12.35;7.40;;;;;;;12.24;81.25;102441.53;5034247;28;20022;-71
2022/05/08 01:43:37;;;;;;;13.43;7.15;;;;;;;12.23;81.52;102443.41;5034704;28;20037;-72
2022/05/08 01:46:04;;;;;;;13.82;7.32;;;;;;;12.25;81.16;102448.66;5035381;28;20044;-72
2022/05/08 01:48:30;;;;;;;12.95;7.20;;;;;;;12.20;81.56;102441.09;5035949;28;20037;-70
2022/05/08 01:50:59;;;;;;;13.50;7.55;;;;;;;12.15;80.62;102440.00;5034137;28;20037;-72
2022/05/08 01:53:27;;;;;;;12.70;7.45;;;;;;;12.05;80.93;102449.31;5034395;28;20389;-72
2022/05/08 01:55:54;;;;;;;14.02;7.78;;;;;;;12.06;81.38;102450.16;5034484;28;20025;-71
2022/05/08 01:58:24;;;;;;;13.43;7.68;;;;;;;12.09;81.48;102448.94;5050898;28;20037;-73
2022/05/08 02:00:50;;;;;;;17.83;8.02;;;;;;;12.12;81.52;102451.25;5033124;28;20792;-73
2022/05/08 02:03:17;;;;;;;14.50;7.97;;;;;;;12.06;81.49;102452.88;5035494;28;20079;-71
2022/05/08 02:05:43;;;;;;;12.13;7.53;;;;;;;12.00;81.97;102454.50;5035553;28;20041;-73
2022/05/08 02:08:09;;;;;;;12.20;8.05;;;;;;;11.97;81.77;102445.91;5033787;28;20052;-71
2022/05/08 02:10:35;;;;;;;13.35;8.10;;;;;;;11.99;81.91;102458.25;5017675;28;20366;-72
2022/05/08 02:13:02;;;;;;;15.25;7.63;;;;;;;12.01;81.34;102461.59;5034956;28;20044;-72
2022/05/08 02:15:29;;;;;;;11.88;8.40;;;;;;;11.97;81.79;102459.47;5034264;28;20029;-72
2022/05/08 02:17:58;;;;;;;14.93;8.63;;;;;;;11.86;81.68;102458.91;5035130;28;20361;-71
2022/05/08 02:20:23;;;;;;;15.20;8.63;;;;;;;11.91;82.04;102457.50;5030144;28;20048;-71
2022/05/08 02:22:49;;;;;;;17.77;9.13;;;;;;;11.83;82.46;102462.03;5030425;28;20465;-71
2022/05/08 02:25:14;;;;;;;15.23;8.40;;;;;;;11.81;82.73;102461.38;5013654;28;20125;-72
2022/05/08 02:27:41;;;;;;;12.55;8.60;;;;;;;11.82;82.88;102468.50;5014163;28;20026;-72
2022/05/08 02:30:11;;;;;;;15.93;8.38;;;;;;;11.71;82.95;102463.56;5014354;28;20440;-72
2022/05/08 02:32:37;;;;;;;16.02;8.75;;;;;;;11.65;83.16;102470.59;5015335;28;20038;-72
2022/05/08 02:35:06;;;;;;;17.58;9.50;;;;;;;11.60;83.17;102462.22;5028871;28;20087;-71
2022/05/08 02:37:31;;;;;;;16.00;9.55;;;;;;;11.59;84.06;102465.13;5033445;28;20026;-71
2022/05/08 02:39:56;;;;;;;16.95;9.68;;;;;;;11.58;83.70;102466.13;5034990;28;20030;-71
2022/05/08 02:42:22;;;;;;;15.50;8.82;;;;;;;11.54;83.72;102462.97;5034741;28;20472;-72
2022/05/08 02:44:47;;;;;;;19.73;10.00;;;;;;;11.56;83.73;102468.22;5034677;28;20029;-71
2022/05/08 02:47:12;;;;;;;18.58;9.68;;;;;;;11.56;83.98;102473.63;5034429;28;20575;-72
2022/05/08 02:49:38;;;;;;;16.40;9.25;;;;;;;11.44;83.43;102463.28;5034323;28;20063;-72
2022/05/08 02:52:04;;;;;;;16.48;9.30;;;;;;;11.40;84.17;102470.13;5033184;28;20069;-70
2022/05/08 02:54:29;;;;;;;14.88;8.93;;;;;;;11.40;83.93;102470.13;5032789;28;20469;-73
2022/05/08 02:59:38;;;;;;;18.00;10.32;;;;;;;11.43;83.95;102469.75;5034645;28;20125;-73
2022/05/08 03:02:04;;;;;;;18.63;9.55;;;;;;;11.43;83.33;102475.19;5031730;28;20065;-70
2022/05/08 03:04:29;;;;;;;12.50;9.07;;;;;;;11.45;83.79;102481.22;5034283;28;20030;-72
2022/05/08 03:06:55;;;;;;;17.70;10.02;;;;;;;11.38;83.38;102474.06;5033951;28;20401;-71
2022/05/08 03:09:20;;;;;;;14.93;9.65;;;;;;;11.34;83.45;102469.03;5034161;28;20036;-72
2022/05/08 03:11:45;;;;;;;17.75;9.63;;;;;;;11.39;83.69;102467.63;5034455;28;20026;-71
2022/05/08 03:14:11;;;;;;;19.13;9.73;;;;;;;11.37;83.07;102464.25;5032931;28;20033;-72
2022/05/08 03:16:37;;;;;;;16.70;9.05;;;;;;;11.35;82.75;102461.72;5033068;28;20044;-71
2022/05/08 03:19:02;;;;;;;17.92;9.48;;;;;;;11.28;82.63;102456.22;5033827;28;20029;-72
2022/05/08 03:21:27;;;;;;;16.60;8.93;;;;;;;11.32;82.19;102475.66;5033750;28;20453;-72
2022/05/08 03:23:53;;;;;;;16.75;8.68;;;;;;;11.28;82.66;102463.53;5034197;28;20029;-72
2022/05/08 03:26:19;;;;;;;17.05;8.93;;;;;;;11.29;82.68;102470.63;5032692;28;20029;-72
2022/05/08 03:28:45;;;;;;;18.85;8.85;;;;;;;11.32;82.51;102467.53;5034107;28;20034;-71
2022/05/08 03:31:11;;;;;;;15.50;8.52;;;;;;;11.24;81.83;102465.75;5033520;28;20036;-72
2022/05/08 03:33:37;;;;;;;20.95;9.00;;;;;;;11.18;81.49;102466.53;5033680;28;20029;-70
2022/05/08 03:36:04;;;;;;;17.98;8.25;;;;;;;11.21;80.53;102468.03;5033754;28;20036;-71
2022/05/08 03:38:30;;;;;;;16.45;8.32;;;;;;;11.13;80.27;102468.97;5032320;28;20461;-72
2022/05/08 03:40:55;;;;;;;18.55;8.15;;;;;;;11.14;80.89;102474.19;5032944;28;20033;-72
2022/05/08 03:43:21;;;;;;;16.45;7.22;;;;;;;11.13;79.96;102469.81;5033631;28;20033;-71
2022/05/08 03:45:50;;;;;;;17.63;7.97;;;;;;;11.12;80.30;102468.13;5033436;28;20041;-71
2022/05/08 03:48:17;;;;;;;20.02;7.22;;;;;;;11.15;78.93;102475.84;5033500;28;20029;-72
2022/05/08 03:50:43;;;;;;;17.40;7.28;;;;;;;11.15;78.52;102473.16;5032278;28;20032;-73
2022/05/08 03:53:09;;;;;;;21.63;7.00;;;;;;;11.06;78.14;102470.75;5033307;28;20112;-71
2022/05/08 03:55:34;;;;;;;16.80;6.90;;;;;;;11.04;78.24;102475.53;5033570;28;20465;-72
2022/05/08 03:58:00;;;;;;;18.77;7.40;;;;;;;11.06;77.72;102474.28;5033338;28;20037;-71
2022/05/08 04:00:25;;;;;;;16.33;6.88;;;;;;;11.05;77.51;102483.47;5032494;28;20033;-71
2022/05/08 04:02:50;;;;;;;19.08;6.22;;;;;;;10.98;78.08;102474.41;5032057;28;20029;-72
2022/05/08 04:05:16;;;;;;;21.98;6.60;;;;;;;11.00;76.56;102480.47;5031946;28;20048;-72
2022/05/08 04:07:41;;;;;;;17.77;6.78;;;;;;;10.96;76.26;102479.16;5032619;28;20046;-71
2022/05/08 04:10:08;;;;;;;16.48;5.70;;;;;;;10.93;76.63;102490.34;5033034;28;20026;-71
2022/05/08 04:12:34;;;;;;;17.63;5.78;;;;;;;10.87;76.01;102485.69;5033302;28;20029;-72
2022/05/08 04:14:59;;;;;;;22.02;6.88;;;;;;;10.90;77.41;102486.19;5032961;28;20029;-71
2022/05/08 04:17:28;;;;;;;18.38;6.22;;;;;;;10.91;77.29;102487.84;5031618;28;20037;-70
2022/05/08 04:19:56;;;;;;;19.17;6.28;;;;;;;10.86;76.69;102486.75;5032721;28;20026;-72
2022/05/08 04:25:07;;;;;;;19.38;5.90;;;;;;;10.64;76.25;102492.88;5032787;28;20044;-71
2022/05/08 04:27:34;;;;;;;23.10;6.50;;;;;;;10.70;76.33;102488.56;5032987;28;20111;-72
2022/05/08 04:29:59;;;;;;;20.35;5.28;;;;;;;10.69;75.63;102497.75;5048108;28;20539;-70
2022/05/08 04:32:25;;;;;;;19.58;5.65;;;;;;;10.66;76.01;102491.84;5032559;28;20025;-70
2022/05/08 04:34:50;;;;;;;21.45;5.82;;;;;;;10.68;76.07;102500.63;5032843;28;20033;-71
2022/05/08 04:37:15;;;;;;;23.92;5.70;;;;;;;10.62;75.61;102488.69;5030960;28;20039;-72
2022/05/08 04:39:41;;;;;;;20.75;5.57;;;;;;;10.56;77.07;102489.41;5031533;28;20030;-70
2022/05/08 04:42:07;;;;;;;22.65;5.97;;;;;;;10.55;76.28;102498.56;5031464;28;20396;-71
2022/05/08 04:44:32;;;;;;;23.67;5.75;;;;;;;10.51;76.68;102499.94;5014599;28;20033;-71
2022/05/08 04:46:57;;;;;;;26.50;5.90;;;;;;;10.40;77.34;102491.25;5031397;28;20103;-72
2022/05/08 04:49:23;;;;;;;22.45;5.80;;;;;;;10.46;76.92;102501.34;5031203;28;20128;-72
2022/05/08 04:51:48;;;;;;;28.65;6.18;;;;;;;10.47;77.17;102510.31;5047482;28;20087;-72
2022/05/08 04:54:14;;;;;;;22.70;6.20;;;;;;;10.48;77.13;102508.44;5032400;28;20029;-72
2022/05/08 04:56:39;;;;;;;21.13;5.55;;;;;;;10.40;77.33;102512.06;5032367;28;20484;-71
2022/05/08 04:59:05;;;;;;;21.45;5.85;;;;;;;10.38;77.37;102514.13;5031227;28;20079;-71
2022/05/08 05:01:30;;;;;;;23.55;5.70;;;;;;;10.41;78.37;102514.56;5029733;28;20037;-71
2022/05/08 05:03:56;;;;;;;19.45;5.78;;;;;;;10.43;78.23;102517.97;5030909;28;20052;-71
2022/05/08 05:06:21;;;;;;;25.80;5.80;;;;;;;10.44;77.80;102525.03;5030747;28;20405;-71
2022/05/08 05:08:46;;;;;;;27.38;5.65;;;;;;;10.35;77.79;102520.72;5031212;28;20518;-71
2022/05/08 05:11:12;;;;;;;29.10;5.88;;;;;;;10.36;77.87;102530.53;5030513;28;20079;-71
2022/05/08 05:13:37;;;;;;;23.65;5.72;;;;;;;10.35;78.49;102528.00;5032456;28;20079;-72
2022/05/08 05:16:03;;;;;;;26.48;5.57;;;;;;;10.38;78.55;102531.19;5030771;28;20033;-71
2022/05/08 05:18:29;;;;;;;23.65;6.03;;;;;;;10.38;78.39;102533.88;5032086;28;20476;-72
2022/05/08 05:20:54;;;;;;;20.55;5.60;;;;;;;10.46;78.27;102535.69;5032032;28;20037;-70
2022/05/08 05:23:20;;;;;;;26.00;5.53;;;;;;;10.50;77.44;102533.47;5030851;28;20034;-71
2022/05/08 05:25:45;;;;;;;23.77;6.07;;;;;;;10.52;77.82;102542.22;5031054;28;20033;-72
2022/05/08 05:28:11;;;;;;;23.75;5.93;;;;;;;10.49;78.32;102539.91;5047584;28;20144;-72
2022/05/08 05:30:37;;;;;;;27.50;6.05;;;;;;;10.53;77.55;102543.94;5030197;28;20116;-72
2022/05/08 05:33:03;;;;;;;24.30;5.90;;;;;;;10.53;77.19;102554.75;5030969;28;20033;-71
2022/05/08 05:35:28;;;;;;;24.27;5.97;;;;;;;10.54;77.48;102551.88;5030698;28;20536;-70
2022/05/08 05:37:53;;;;;;;26.77;5.93;;;;;;;10.58;77.55;102558.59;5032193;28;20029;-70
2022/05/08 05:40:20;;;;;;;24.80;5.68;;;;;;;10.63;77.38;102552.63;5031599;28;20025;-71
2022/05/08 05:42:46;;;;;;;24.17;5.43;;;;;;;10.51;76.66;102565.75;5030604;28;20060;-72
2022/05/08 05:45:12;;;;;;;20.85;4.93;;;;;;;10.44;76.89;102568.34;5031885;28;20461;-71
2022/05/08 05:47:49;;;;;;;20.60;5.57;;;;;;;10.46;76.85;102569.00;5030567;28;20117;-71
2022/05/08 05:50:19;;;;;;;23.30;5.05;;;;;;;10.48;76.43;102573.38;5030557;28;20064;-71
2022/05/08 05:52:45;;;;;;;27.98;5.70;;;;;;;10.50;76.48;102576.78;5030719;28;20034;-71
2022/05/08 05:55:10;;;;;;;27.17;5.63;;;;;;;10.45;76.38;102580.03;5032036;28;20072;-70
2022/05/08 05:57:36;;;;;;;18.70;5.07;;;;;;;10.49;76.43;102580.50;5046755;28;20033;-72
2022/05/08 06:00:04;;;;;;;21.85;5.05;;;;;;;10.61;76.77;102588.00;5047296;28;20025;-71
2022/05/08 06:02:29;;;;;;;21.48;5.03;;;;;;;10.64;75.84;102586.78;5028021;28;20032;-72
2022/05/08 06:04:54;;;;;;;23.25;4.97;;;;;;;10.64;75.04;102584.94;5033455;28;20037;-72
2022/05/08 06:07:19;;;;;;;20.25;5.15;;;;;;;10.60;75.09;102590.91;5033969;28;20477;-70
2022/05/08 06:09:45;;;;;;;26.90;5.13;;;;;;;10.54;74.48;102588.94;5034337;28;20073;-72
2022/05/08 06:12:10;;;;;;;26.73;5.20;;;;;;;10.60;74.88;102594.44;5033865;28;20025;-70
2022/05/08 06:14:36;;;;;;;24.15;5.18;;;;;;;10.67;75.12;102605.38;5017438;28;20358;-72
2022/05/08 06:17:01;;;;;;;24.98;5.22;;;;;;;10.70;74.37;102609.59;5035155;28;20068;-71
2022/05/08 06:19:26;;;;;;;23.52;5.13;;;;;;;10.71;74.62;102606.69;5033719;28;20498;-71
2022/05/08 06:21:52;;;;;;;21.95;4.63;;;;;;;10.68;73.65;102607.06;5035053;28;20037;-71
2022/05/08 06:24:17;;;;;;;19.98;5.28;;;;;;;10.72;74.50;102611.09;5033708;28;20431;-71
2022/05/08 06:26:43;;;;;;;24.63;5.25;;;;;;;10.76;74.09;102609.69;5034959;28;20029;-71
2022/05/08 06:29:08;;;;;;;27.73;5.63;;;;;;;10.82;73.57;102613.53;5033806;28;20392;-71
2022/05/08 06:31:33;;;;;;;20.67;4.93;;;;;;;10.85;73.08;102613.16;5050110;28;20497;-72
2022/05/08 06:33:59;;;;;;;23.50;5.13;;;;;;;10.88;73.47;102615.50;5050469;28;20029;-70
2022/05/08 06:36:26;;;;;;;23.48;4.88;;;;;;;10.80;72.31;102615.59;5050009;28;20038;-71
2022/05/08 06:38:52;;;;;;;24.02;4.97;;;;;;;10.85;73.08;102623.16;5033490;28;20025;-71
2022/05/08 06:41:17;;;;;;;20.42;4.75;;;;;;;10.86;73.21;102620.28;5033450;28;20021;-72
2022/05/08 06:43:42;;;;;;;21.13;4.53;;;;;;;10.93;72.05;102623.06;5034960;28;20457;-71
2022/05/08 06:46:08;;;;;;;21.52;4.43;;;;;;;10.96;71.84;102628.13;5017124;28;20037;-72
2022/05/08 06:48:34;;;;;;;18.75;4.47;;;;;;;11.03;71.08;102625.53;5034351;28;20088;-72
2022/05/08 06:51:00;;;;;;;22.80;4.80;;;;;;;11.04;71.60;102622.66;5033234;28;20518;-72
2022/05/08 06:53:26;;;;;;;22.80;4.30;;;;;;;11.04;70.53;102617.22;5033269;28;20468;-71
2022/05/08 06:55:52;;;;;;;20.00;4.78;;;;;;;11.02;69.84;102619.28;5033469;28;20032;-72
2022/05/08 06:58:20;;;;;;;20.98;5.20;;;;;;;11.00;69.73;102615.91;5033127;28;20022;-71
2022/05/08 07:03:29;;;;;;;22.38;4.53;;;;;;;10.95;70.61;102629.16;5034111;28;20076;-71
2022/05/08 07:05:57;;;;;;;25.63;4.75;;;;;;;10.95;71.03;102618.34;5032531;28;20029;-72
2022/05/08 07:08:22;;;;;;;24.33;5.32;;;;;;;11.00;70.66;102615.91;5032994;28;20128;-72
2022/05/08 07:10:48;;;;;;;24.58;4.63;;;;;;;11.05;70.25;102628.91;5032814;28;20121;-72
2022/05/08 07:13:15;;;;;;;24.42;4.88;;;;;;;11.05;69.77;102632.47;5033113;28;20362;-72
2022/05/08 07:15:40;;;;;;;22.80;5.28;;;;;;;10.99;70.19;102635.88;5032793;28;20025;-72
2022/05/08 07:18:05;;;;;;;22.63;5.32;;;;;;;11.01;71.63;102644.69;5032873;28;20083;-72
2022/05/08 07:20:31;;;;;;;25.27;5.47;;;;;;;11.02;70.53;102643.66;5032514;28;20034;-72
2022/05/08 07:22:57;;;;;;;22.35;5.18;;;;;;;11.03;70.31;102642.63;5032865;28;20029;-71
2022/05/08 07:25:22;;;;;;;22.70;4.93;;;;;;;10.99;70.30;102635.88;5033744;28;20029;-71
2022/05/08 07:27:47;;;;;;;24.67;5.10;;;;;;;11.05;69.96;102640.59;5032891;28;20124;-72
2022/05/08 07:30:13;;;;;;;20.40;4.88;;;;;;;11.07;69.29;102641.25;5032731;28;20025;-71
2022/05/08 07:32:39;;;;;;;20.33;4.63;;;;;;;11.11;70.08;102639.84;5032403;28;20029;-70
2022/05/08 07:37:49;;;;;;;26.50;5.30;;;;;;;11.37;68.88;102633.16;5033998;28;20141;-71
2022/05/08 07:40:14;;;;;;;22.95;4.88;;;;;;;11.50;69.83;102638.75;5033772;28;20065;-71
2022/05/08 07:42:40;;;;;;;20.98;5.05;;;;;;;11.57;68.30;102643.44;5033444;28;20056;-71
2022/05/08 07:45:06;;;;;;;20.90;4.40;;;;;;;11.65;68.99;102651.44;5033808;28;20037;-72
2022/05/08 07:47:32;;;;;;;17.52;4.72;;;;;;;11.68;68.65;102642.94;5033421;28;20030;-71
2022/05/08 07:49:57;;;;;;;19.75;4.72;;;;;;;11.72;66.76;102644.25;5032367;28;20025;-71
2022/05/08 07:52:23;;;;;;;24.00;5.18;;;;;;;11.76;67.94;102651.00;5032872;28;20066;-71
2022/05/08 07:54:48;;;;;;;23.98;5.32;;;;;;;11.81;67.88;102651.25;5032137;28;20461;-71
2022/05/08 07:57:13;;;;;;;23.98;5.53;;;;;;;11.84;67.58;102650.88;5032064;28;20038;-71
2022/05/08 07:59:39;;;;;;;21.52;5.15;;;;;;;11.87;67.14;102647.78;5031970;28;20021;-76
2022/05/08 08:02:04;;;;;;;21.75;4.93;;;;;;;11.88;66.67;102660.31;5013309;28;20072;-73
2022/05/08 08:04:31;;;;;;;21.58;5.32;;;;;;;11.94;66.81;102660.63;5033157;28;20036;-73
2022/05/08 08:06:57;;;;;;;24.67;5.55;;;;;;;12.03;67.68;102654.91;5033270;28;20050;-75
2022/05/08 08:09:22;;;;;;;25.13;5.10;;;;;;;12.08;67.34;102667.03;5032935;28;20033;-73
2022/05/08 08:11:47;;;;;;;22.10;4.97;;;;;;;12.05;64.92;102662.84;5031692;28;20594;-72
2022/05/08 08:14:13;;;;;;;27.85;5.65;;;;;;;12.04;64.58;102658.44;5033031;28;20032;-73
2022/05/08 08:16:40;;;;;;;23.77;5.00;;;;;;;12.08;65.41;102657.03;5032893;28;20041;-72
2022/05/08 08:19:05;;;;;;;23.25;5.35;;;;;;;12.20;66.02;102660.94;5031845;28;20036;-71
2022/05/08 08:21:31;;;;;;;23.65;5.22;;;;;;;12.18;64.81;102663.03;5032695;28;20034;-72
2022/05/08 08:23:57;;;;;;;18.00;4.72;;;;;;;12.26;65.84;102663.91;5032856;28;20033;-76
2022/05/08 08:26:22;;;;;;;21.33;4.97;;;;;;;12.27;64.48;102663.72;5032581;28;20381;-74
2022/05/08 08:28:48;;;;;;;21.67;5.53;;;;;;;12.33;64.74;102670.25;5048166;28;20103;-74
2022/05/08 08:31:13;;;;;;;26.20;5.30;;;;;;;12.34;63.87;102663.81;5032563;28;20116;-73
2022/05/08 08:33:40;;;;;;;20.75;4.80;;;;;;;12.43;65.36;102670.78;5032712;28;20125;-72
2022/05/08 08:36:09;;;;;;;21.17;5.05;;;;;;;12.41;64.62;102670.16;5032876;28;20059;-72
2022/05/08 08:38:35;;;;;;;22.83;5.70;;;;;;;12.48;66.18;102672.94;5032489;28;20040;-73
2022/05/08 08:41:04;;;;;;;23.13;5.90;;;;;;;12.48;64.90;102668.31;5030517;28;20026;-70
2022/05/08 08:47:42;;;;;;;21.48;4.82;;;;;;;12.57;64.60;102661.72;5033487;28;20033;-73
2022/05/08 08:49:17;;;;;;;21.35;5.20;;;;;;;12.71;62.96;102667.28;5032768;28;20490;-71
2022/05/08 08:51:44;;;;;;;16.38;4.43;;;;;;;12.74;60.31;102664.19;5032388;28;20031;-73
2022/05/08 08:54:09;;;;;;;18.67;4.85;;;;;;;12.79;62.90;102663.59;5032712;28;20025;-70
2022/05/08 08:56:34;;;;;;;21.73;4.80;;;;;;;12.86;61.07;102669.94;5031077;28;20112;-71
2022/05/08 08:59:06;;;;;;;17.38;4.57;;;;;;;12.89;58.05;102675.84;5030990;28;20033;-71
2022/05/08 09:01:40;;;;;;;16.70;4.18;;;;;;;12.92;57.81;102661.84;5028421;28;20022;-71
2022/05/08 09:04:06;;;;;;;20.77;5.00;;;;;;;13.03;58.37;102670.50;5032336;28;20397;-72
2022/05/08 09:06:51;;;;;;;16.08;4.05;;;;;;;13.12;59.41;102669.34;5031942;28;20102;-72
2022/05/08 09:09:26;;;;;;;16.52;4.18;;;;;;;13.16;56.33;102667.88;5031966;28;20049;-70
2022/05/08 09:11:55;;;;;;;19.40;4.75;;;;;;;13.24;56.43;102672.31;5032468;28;20463;-74
2022/05/08 09:14:31;;;;;;;19.13;4.20;;;;;;;13.28;57.42;102669.00;5030789;28;20488;-74
2022/05/08 09:16:56;;;;;;;17.80;3.90;;;;;;;13.37;57.61;102677.06;5032167;28;20041;-71
2022/05/08 09:19:37;;;;;;;16.30;4.45;;;;;;;13.36;57.39;102665.34;5032260;28;20472;-72
2022/05/08 09:22:04;;;;;;;15.20;4.47;;;;;;;13.42;57.63;102660.97;5032435;28;20025;-72
2022/05/08 09:24:30;;;;;;;22.25;4.90;;;;;;;13.44;57.94;102667.06;5032108;28;20322;-72
2022/05/08 09:27:09;;;;;;;16.10;4.30;;;;;;;13.52;56.41;102664.19;5032317;28;20037;-74
2022/05/08 09:29:34;;;;;;;14.95;4.07;;;;;;;13.57;57.01;102669.88;5031702;28;20037;-71
2022/05/08 09:31:59;;;;;;;17.58;3.67;;;;;;;13.62;56.51;102653.78;5031989;28;20034;-73
2022/05/08 09:34:25;;;;;;;12.20;4.00;;;;;;;13.72;57.35;102660.72;5031229;28;20033;-73
2022/05/08 09:37:07;;;;;;;17.25;4.25;;;;;;;13.76;56.86;102664.72;5031637;28;20368;-73
2022/05/08 09:39:32;;;;;;;19.55;4.90;;;;;;;13.77;56.74;102655.53;5034319;28;20384;-70
2022/05/08 09:41:57;;;;;;;17.58;4.38;;;;;;;13.81;56.73;102654.94;5036912;28;20030;-68
2022/05/08 09:44:22;;;;;;;18.77;4.30;;;;;;;13.91;56.88;102646.38;5035986;28;20109;-70
2022/05/08 09:46:49;;;;;;;18.88;4.50;;;;;;;13.99;57.28;102653.53;5047582;28;20381;-71
2022/05/08 09:49:24;;;;;;;19.88;4.70;;;;;;;14.00;56.73;102649.75;5017249;28;20161;-71
2022/05/08 09:51:53;;;;;;;16.67;4.50;;;;;;;14.05;57.05;102652.69;5015674;28;20034;-69
2022/05/08 09:54:19;;;;;;;18.33;4.30;;;;;;;14.18;56.00;102660.09;5014900;28;20082;-70
2022/05/08 09:56:46;;;;;;;13.95;3.67;;;;;;;14.26;55.59;102659.06;5035856;28;20037;-69
2022/05/08 09:59:12;;;;;;;17.75;3.90;;;;;;;14.30;56.67;102660.34;5043275;28;20049;-69
2022/05/08 10:01:41;;;;;;;15.80;4.22;;;;;;;14.32;55.95;102659.06;5024415;28;20034;-69
2022/05/08 10:04:06;;;;;;;18.85;4.07;;;;;;;14.42;55.57;102657.81;5031190;28;20037;-68
2022/05/08 10:06:34;;;;;;;19.23;4.93;;;;;;;14.48;55.35;102657.03;5039915;28;20400;-70
2022/05/08 10:14:33;;;;;;;16.58;4.05;;;;;;;14.55;53.28;102646.94;5026784;28;20048;-72
2022/05/08 10:17:08;;;;;;;15.93;4.22;;;;;;;14.59;53.77;102647.41;5047367;28;20132;-70
2022/05/08 10:19:33;;;;;;;17.33;4.28;;;;;;;14.58;53.07;102634.81;5034431;28;20037;-69
2022/05/08 10:22:09;;;;;;;12.17;3.90;;;;;;;14.66;53.52;102640.06;5034052;28;20428;-73
2022/05/08 10:24:47;;;;;;;15.13;4.10;;;;;;;14.76;53.87;102636.94;5032905;28;20044;-70
2022/05/08 10:27:15;;;;;;;14.52;4.00;;;;;;;14.80;53.76;102627.31;5035056;28;20156;-72
2022/05/08 10:29:42;;;;;;;14.90;3.80;;;;;;;14.92;53.71;102643.88;5034660;28;20072;-73
2022/05/08 10:32:10;;;;;;;12.98;4.10;;;;;;;15.03;53.36;102635.88;5034018;28;20045;-71
2022/05/08 10:34:41;;;;;;;15.55;3.95;;;;;;;15.12;52.42;102641.13;5034788;28;20396;-77
2022/05/08 10:37:12;;;;;;;15.93;4.13;;;;;;;15.24;52.95;102633.97;5033492;28;20032;-75
2022/05/08 10:39:42;;;;;;;;;;;;;;;15.31;55.20;102623.03;5035061;28;20075;-75
2022/05/08 10:42:39;;;;;;;14.90;3.83;;;;;;;15.39;52.41;102628.28;5035183;28;19963;-76
2022/05/08 10:45:05;;;;;;;13.10;3.60;;;;;;;15.37;51.28;102622.22;5032567;28;20029;-76
2022/05/08 10:47:33;;;;;;;13.63;3.22;;;;;;;15.42;50.42;102614.22;5034506;28;20018;-75
2022/05/08 10:50:07;;;;;;;15.55;3.60;;;;;;;15.38;50.58;102619.28;5033743;28;20029;-75
2022/05/08 10:52:37;;;;;;;15.85;3.75;;;;;;;15.45;50.51;102612.94;5019259;28;20032;-71
2022/05/08 10:55:08;;;;;;;14.75;3.70;;;;;;;15.52;49.94;102624.66;5033741;28;20046;-75
2022/05/08 10:57:35;;;;;;;12.05;3.28;;;;;;;15.47;49.08;102617.13;5034081;28;20036;-71
2022/05/08 11:00:03;;;;;;;12.18;3.60;;;;;;;15.56;49.57;102609.53;5034438;28;20109;-72
2022/05/08 11:02:41;;;;;;;12.65;3.28;;;;;;;15.66;51.20;102614.56;5029855;28;20072;-72
2022/05/08 11:05:07;;;;;;;16.73;3.50;;;;;;;15.76;49.88;102615.78;5014626;28;20033;-68
2022/05/08 11:07:33;;;;;;;14.98;4.63;;;;;;;15.81;50.45;102609.69;5018697;28;20049;-69
2022/05/08 11:09:58;;;;;;;11.52;3.58;;;;;;;15.88;49.77;102612.38;5034177;28;20041;-70
2022/05/08 11:12:24;;;;;;;12.13;3.33;;;;;;;15.90;48.97;102613.00;5034332;28;20083;-70
2022/05/08 11:14:49;;;;;;;16.42;3.90;;;;;;;16.06;50.27;102608.91;5034171;28;20032;-67
2022/05/08 11:17:16;;;;;;;19.02;4.07;;;;;;;16.24;49.97;102622.66;5025613;28;20461;-70
2022/05/08 11:19:56;;;;;;;10.48;3.42;;;;;;;16.28;49.46;102612.16;5031953;28;20091;-68
2022/05/08 11:22:21;;;;;;;10.95;3.45;;;;;;;16.30;47.67;102615.50;5031945;28;20439;-69
2022/05/08 11:24:47;;;;;;;12.07;3.45;;;;;;;16.31;47.83;102614.44;5032360;28;20060;-68
2022/05/08 11:27:13;;;;;;;16.40;4.03;;;;;;;16.40;49.22;102604.94;5033756;28;20112;-71
2022/05/08 11:29:38;;;;;;;14.73;3.17;;;;;;;16.42;47.56;102608.25;5033569;28;20121;-70
2022/05/08 11:38:03;;;;;;;13.23;3.42;;;;;;;16.76;48.52;102608.03;5032993;28;20072;-75
2022/05/08 11:40:29;;;;;;;11.27;3.30;;;;;;;16.70;46.64;102593.34;5028433;28;20049;-70